Terminal Aerodrome Forecast
Issued by NWS Tuscon, AZ

Home | Current Version | Previous Version | Text Only | Print | Product List | Glossary On
Versions: 1 2 3 4 5 6 7 8 9
000
FTUS45 KTWC 271700
TAFDUG
TAF
KDUG 271721Z 2718/2818 34009KT P6SM SKC
     FM280100 02007KT P6SM SKC
     FM281000 VRB03KT P6SM SCT200=

USA.gov is the U.S. government's official web portal to all federal, state and local government web resources and services.